createdAt,value
2023-03-31T00:03:47.096Z,11.07
2023-03-31T00:08:52.293Z,11.01
2023-03-31T00:13:54.204Z,10.99
2023-03-31T00:18:55.738Z,10.99
2023-03-31T00:23:59.713Z,11.03
2023-03-31T00:29:02.156Z,11.11
2023-03-31T00:34:03.661Z,11.21
2023-03-31T00:39:09.537Z,11.29
2023-03-31T00:44:24.525Z,11.31
2023-03-31T00:49:35.335Z,11.36
2023-03-31T00:54:38.779Z,11.35
2023-03-31T00:59:43.866Z,11.10
2023-03-31T01:04:50.970Z,10.65
2023-03-31T01:09:57.122Z,10.57
2023-03-31T01:14:59.763Z,10.74
2023-03-31T01:20:21.902Z,10.84
2023-03-31T01:26:04.411Z,10.53
2023-03-31T01:31:18.027Z,10.11
2023-03-31T01:36:36.297Z,9.83
2023-03-31T01:41:58.121Z,9.63
2023-03-31T01:47:06.809Z,9.49
2023-03-31T01:52:23.647Z,9.43
2023-03-31T01:57:39.248Z,9.43
2023-03-31T02:02:43.588Z,9.45
2023-03-31T02:07:54.278Z,9.41
2023-03-31T02:12:58.257Z,9.40
2023-03-31T02:18:03.727Z,9.35
2023-03-31T02:23:05.648Z,9.30
2023-03-31T02:28:15.661Z,9.29
2023-03-31T02:33:17.710Z,9.18
2023-03-31T02:38:19.619Z,9.14
2023-03-31T02:43:21.690Z,9.19
2023-03-31T02:48:31.008Z,9.21
2023-03-31T02:54:17.684Z,9.15
2023-03-31T02:59:52.371Z,9.03
2023-03-31T03:05:08.734Z,8.90
2023-03-31T03:10:30.620Z,8.73
2023-03-31T03:15:37.689Z,8.52
2023-03-31T03:20:40.565Z,8.43
2023-03-31T03:25:42.147Z,8.28
2023-03-31T03:30:43.740Z,8.08
2023-03-31T03:35:45.406Z,7.82
2023-03-31T03:40:48.920Z,7.54
2023-03-31T03:45:52.378Z,7.30
2023-03-31T03:50:54.365Z,7.29
2023-03-31T03:55:56.153Z,7.52
2023-03-31T04:00:57.740Z,7.79
2023-03-31T04:05:59.259Z,7.96
2023-03-31T04:11:00.816Z,8.07
2023-03-31T04:16:02.425Z,8.06
2023-03-31T04:21:04.169Z,8.08
2023-03-31T04:26:08.969Z,8.17
2023-03-31T04:31:15.635Z,8.20
2023-03-31T04:36:20.256Z,8.20
2023-03-31T04:41:23.101Z,8.20
2023-03-31T04:46:25.558Z,8.29
2023-03-31T04:51:27.807Z,8.34
2023-03-31T04:56:29.312Z,8.34
2023-03-31T05:01:36.404Z,8.32
2023-03-31T05:06:38.218Z,8.41
2023-03-31T05:11:39.809Z,8.45
2023-03-31T05:16:42.071Z,8.38
2023-03-31T05:21:43.634Z,8.31
2023-03-31T05:26:52.694Z,8.28
2023-03-31T05:31:54.450Z,8.36
2023-03-31T05:36:56.265Z,8.36
2023-03-31T05:41:57.824Z,8.32
2023-03-31T05:46:59.500Z,8.44
2023-03-31T05:52:01.445Z,8.46
2023-03-31T05:57:03.583Z,8.57
2023-03-31T06:02:05.713Z,8.46
2023-03-31T06:07:08.359Z,8.52
2023-03-31T06:12:09.940Z,8.62
2023-03-31T06:17:11.506Z,8.73
2023-03-31T06:22:13.057Z,8.86
2023-03-31T06:27:14.625Z,8.99
2023-03-31T06:32:16.620Z,9.08
2023-03-31T06:37:18.169Z,9.16
2023-03-31T06:42:24.244Z,9.23
2023-03-31T06:47:25.865Z,9.26
2023-03-31T06:52:27.417Z,9.16
2023-03-31T06:57:30.038Z,9.21
2023-03-31T07:02:31.742Z,9.51
2023-03-31T07:07:33.935Z,9.76
2023-03-31T07:12:35.676Z,9.82
2023-03-31T07:17:43.334Z,10.02
2023-03-31T07:22:47.026Z,10.32
2023-03-31T07:27:48.612Z,10.60
2023-03-31T07:32:54.776Z,10.78
2023-03-31T07:37:56.432Z,10.90
2023-03-31T07:42:58.085Z,11.23
2023-03-31T07:48:00.308Z,11.75
2023-03-31T07:53:02.345Z,11.84
2023-03-31T07:58:03.971Z,12.05
2023-03-31T08:03:07.096Z,12.33
2023-03-31T08:08:08.770Z,12.85
2023-03-31T08:13:10.430Z,13.73
2023-03-31T08:18:12.059Z,14.20
2023-03-31T08:23:13.684Z,13.79
2023-03-31T08:28:15.417Z,13.54
2023-03-31T08:33:17.963Z,13.85
2023-03-31T08:38:19.546Z,13.94
2023-03-31T08:43:32.709Z,13.99
2023-03-31T08:48:45.158Z,13.96
2023-03-31T08:54:03.512Z,14.15
2023-03-31T08:59:07.170Z,14.52
2023-03-31T09:04:27.766Z,14.67
2023-03-31T09:09:49.999Z,14.62
2023-03-31T09:15:01.438Z,14.38
2023-03-31T09:20:14.188Z,14.46
2023-03-31T09:25:33.580Z,14.19
2023-03-31T09:30:37.022Z,14.43
2023-03-31T09:35:39.043Z,14.02
2023-03-31T09:40:41.426Z,12.95
2023-03-31T09:45:52.039Z,12.81
2023-03-31T09:51:07.643Z,13.15
2023-03-31T09:56:11.381Z,13.14
2023-03-31T10:01:15.714Z,13.16
2023-03-31T10:06:17.990Z,13.23
2023-03-31T10:11:20.462Z,13.93
2023-03-31T10:16:34.234Z,14.76
2023-03-31T10:21:38.540Z,15.32
2023-03-31T10:26:40.925Z,15.61
2023-03-31T10:31:48.473Z,15.89
2023-03-31T10:36:51.934Z,15.86
2023-03-31T10:41:53.890Z,15.58
2023-03-31T10:46:55.726Z,12.67
2023-03-31T10:51:59.666Z,11.16
2023-03-31T10:57:05.496Z,10.94
2023-03-31T11:02:34.603Z,11.07
2023-03-31T11:07:50.031Z,11.11
2023-03-31T11:13:01.256Z,10.72
2023-03-31T11:18:32.766Z,10.79
2023-03-31T11:23:53.659Z,11.25
2023-03-31T11:29:16.602Z,11.85
2023-03-31T11:34:42.018Z,12.78
2023-03-31T11:40:00.565Z,13.51
2023-03-31T11:45:12.088Z,13.73
2023-03-31T11:50:21.069Z,13.94
2023-03-31T11:55:25.483Z,14.01
2023-03-31T12:00:35.607Z,14.00
2023-03-31T12:05:46.329Z,13.97
2023-03-31T12:10:54.386Z,14.08
2023-03-31T12:16:06.552Z,14.14
2023-03-31T12:21:10.383Z,14.47
2023-03-31T12:26:14.794Z,14.71
2023-03-31T12:31:23.554Z,14.39
2023-03-31T12:36:34.289Z,13.49
2023-03-31T12:42:15.851Z,13.15
2023-03-31T12:47:49.883Z,12.98
2023-03-31T12:53:00.225Z,12.55
2023-03-31T12:58:27.570Z,12.36
2023-03-31T13:03:48.612Z,12.78
2023-03-31T13:08:50.137Z,13.32
2023-03-31T13:19:34.755Z,13.31
2023-03-31T13:24:36.705Z,13.36
2023-03-31T13:29:44.670Z,13.49
2023-03-31T13:35:05.841Z,13.64
2023-03-31T13:40:13.485Z,13.52
2023-03-31T13:45:44.495Z,13.50
2023-03-31T13:51:11.382Z,13.70
2023-03-31T13:56:45.057Z,14.21
2023-03-31T14:02:02.460Z,14.59
2023-03-31T14:07:29.035Z,14.72
2023-03-31T14:12:38.443Z,14.80
2023-03-31T14:17:41.306Z,14.65
2023-03-31T14:23:06.816Z,14.73
2023-03-31T14:28:26.457Z,14.17
2023-03-31T14:33:49.869Z,12.86
2023-03-31T14:38:52.561Z,12.42
2023-03-31T14:43:54.135Z,13.04
2023-03-31T14:49:14.920Z,13.75
2023-03-31T14:54:21.646Z,14.06
2023-03-31T14:59:29.164Z,14.00
2023-03-31T15:04:42.362Z,13.84
2023-03-31T15:09:49.644Z,13.10
2023-03-31T15:14:54.631Z,11.87
2023-03-31T15:20:01.265Z,11.80
2023-03-31T15:25:03.320Z,12.50
2023-03-31T15:30:14.668Z,13.13
2023-03-31T15:35:36.463Z,13.33
2023-03-31T15:40:41.047Z,13.29
2023-03-31T15:45:54.121Z,13.10
2023-03-31T15:51:07.179Z,12.89
2023-03-31T15:56:38.138Z,12.69
2023-03-31T16:01:45.525Z,12.43
2023-03-31T16:06:56.646Z,12.17
2023-03-31T16:12:02.080Z,12.03
2023-03-31T16:17:09.077Z,11.90
2023-03-31T16:22:16.862Z,11.74
2023-03-31T16:27:18.762Z,11.57
2023-03-31T16:32:20.921Z,11.50
2023-03-31T16:37:23.326Z,11.21
2023-03-31T16:42:24.997Z,10.75
2023-03-31T16:47:35.277Z,10.52
2023-03-31T16:52:37.887Z,10.49
2023-03-31T16:57:39.412Z,10.37
2023-03-31T17:02:41.416Z,9.98
2023-03-31T17:07:43.062Z,9.30
2023-03-31T17:12:44.560Z,8.43
2023-03-31T17:17:46.388Z,7.85
2023-03-31T17:22:48.187Z,7.71
2023-03-31T17:27:49.705Z,7.66
2023-03-31T17:32:52.260Z,7.61
2023-03-31T17:37:55.245Z,7.56
2023-03-31T17:42:56.850Z,7.49
2023-03-31T17:47:59.445Z,7.37
2023-03-31T17:53:01.447Z,7.26
2023-03-31T17:58:03.486Z,7.21
2023-03-31T18:03:05.180Z,7.27
2023-03-31T18:08:07.246Z,7.30
2023-03-31T18:13:09.774Z,7.35
2023-03-31T18:18:11.340Z,7.40
2023-03-31T18:23:13.151Z,7.47
2023-03-31T18:28:16.182Z,7.51
2023-03-31T18:33:17.807Z,7.71
2023-03-31T18:38:19.743Z,7.97
2023-03-31T18:43:22.438Z,8.05
2023-03-31T18:48:25.173Z,8.07
2023-03-31T18:53:26.797Z,8.09
2023-03-31T18:58:30.106Z,8.20
2023-03-31T19:03:32.149Z,8.36
2023-03-31T19:08:33.795Z,8.53
2023-03-31T19:13:35.886Z,8.71
2023-03-31T19:18:38.615Z,8.72
2023-03-31T19:23:40.607Z,8.49
2023-03-31T19:28:42.527Z,8.28
2023-03-31T19:33:44.014Z,8.22
2023-03-31T19:38:45.555Z,8.19
2023-03-31T19:43:47.905Z,8.04
2023-03-31T19:48:49.482Z,8.01
2023-03-31T19:53:51.753Z,7.96
2023-03-31T19:58:53.595Z,7.85
2023-03-31T20:03:56.108Z,7.80
2023-03-31T20:09:00.365Z,7.67
2023-03-31T20:14:03.263Z,7.52
2023-03-31T20:19:08.531Z,7.48
2023-03-31T20:24:16.369Z,7.55
2023-03-31T20:29:17.912Z,7.55
2023-03-31T20:34:22.315Z,7.58
2023-03-31T20:39:23.793Z,7.57
2023-03-31T20:44:25.546Z,7.62
2023-03-31T20:49:29.209Z,7.87
2023-03-31T20:54:30.695Z,8.22
2023-03-31T20:59:32.620Z,8.67
2023-03-31T21:04:34.277Z,8.70
2023-03-31T21:09:35.783Z,8.63
2023-03-31T21:14:37.441Z,8.68
2023-03-31T21:19:38.953Z,8.68
2023-03-31T21:24:40.446Z,8.48
2023-03-31T21:29:41.932Z,8.28
2023-03-31T21:34:43.415Z,8.17
2023-03-31T21:39:44.926Z,8.13
2023-03-31T21:44:47.000Z,8.27
2023-03-31T21:49:48.508Z,8.45
2023-03-31T21:54:50.106Z,8.45
2023-03-31T21:59:51.602Z,8.52
2023-03-31T22:04:53.217Z,8.48
2023-03-31T22:09:54.754Z,8.49
2023-03-31T22:14:56.932Z,8.54
2023-03-31T22:19:58.590Z,8.66
2023-03-31T22:25:00.511Z,8.77
2023-03-31T22:30:02.567Z,8.88
2023-03-31T22:35:04.488Z,8.71
2023-03-31T22:40:07.071Z,8.61
2023-03-31T22:45:09.223Z,8.60
2023-03-31T22:50:11.313Z,8.53
2023-03-31T22:55:13.045Z,8.57
2023-03-31T23:00:15.041Z,8.66
2023-03-31T23:05:16.905Z,8.63
2023-03-31T23:10:18.690Z,8.66
2023-03-31T23:15:20.796Z,8.70
2023-03-31T23:20:22.839Z,8.68
2023-03-31T23:25:24.349Z,8.67
2023-03-31T23:30:26.243Z,8.68
2023-03-31T23:35:27.720Z,8.78
2023-03-31T23:40:29.195Z,8.88
2023-03-31T23:45:31.079Z,8.88
2023-03-31T23:50:33.981Z,8.67
2023-03-31T23:55:35.694Z,8.52
